sensor_id;sensor_type;location;lat;lon;timestamp;P1;durP1;ratioP1;P2;durP2;ratioP2
70148;SDS011;57514;52.164;5.282;2023-09-12T00:02:14;41.28;;;21.20;;
70148;SDS011;57514;52.164;5.282;2023-09-12T00:04:42;43.45;;;22.25;;
70148;SDS011;57514;52.164;5.282;2023-09-12T00:07:09;41.78;;;22.50;;
70148;SDS011;57514;52.164;5.282;2023-09-12T00:09:36;45.28;;;22.40;;
70148;SDS011;57514;52.164;5.282;2023-09-12T00:12:04;45.50;;;22.95;;
70148;SDS011;57514;52.164;5.282;2023-09-12T00:14:31;40.17;;;20.58;;
70148;SDS011;57514;52.164;5.282;2023-09-12T00:16:59;42.28;;;20.40;;
70148;SDS011;57514;52.164;5.282;2023-09-12T00:19:26;43.13;;;23.25;;
70148;SDS011;57514;52.164;5.282;2023-09-12T00:21:54;46.05;;;22.58;;
70148;SDS011;57514;52.164;5.282;2023-09-12T00:24:21;42.97;;;20.27;;
70148;SDS011;57514;52.164;5.282;2023-09-12T00:26:48;43.55;;;20.83;;
70148;SDS011;57514;52.164;5.282;2023-09-12T00:29:16;40.88;;;20.27;;
70148;SDS011;57514;52.164;5.282;2023-09-12T00:31:43;41.80;;;20.45;;
70148;SDS011;57514;52.164;5.282;2023-09-12T00:34:10;41.20;;;21.63;;
70148;SDS011;57514;52.164;5.282;2023-09-12T00:36:37;45.63;;;21.50;;
70148;SDS011;57514;52.164;5.282;2023-09-12T00:39:04;43.92;;;22.30;;
70148;SDS011;57514;52.164;5.282;2023-09-12T00:41:32;42.70;;;22.08;;
70148;SDS011;57514;52.164;5.282;2023-09-12T00:43:59;44.58;;;21.00;;
70148;SDS011;57514;52.164;5.282;2023-09-12T00:46:26;41.10;;;20.00;;
70148;SDS011;57514;52.164;5.282;2023-09-12T00:48:55;53.88;;;19.80;;
70148;SDS011;57514;52.164;5.282;2023-09-12T00:51:25;36.58;;;18.98;;
70148;SDS011;57514;52.164;5.282;2023-09-12T00:53:52;37.00;;;19.45;;
70148;SDS011;57514;52.164;5.282;2023-09-12T00:56:21;38.05;;;18.30;;
70148;SDS011;57514;52.164;5.282;2023-09-12T00:58:49;42.83;;;21.05;;
70148;SDS011;57514;52.164;5.282;2023-09-12T01:01:18;43.60;;;18.52;;
70148;SDS011;57514;52.164;5.282;2023-09-12T01:03:46;43.53;;;19.42;;
70148;SDS011;57514;52.164;5.282;2023-09-12T01:06:14;36.65;;;18.33;;
70148;SDS011;57514;52.164;5.282;2023-09-12T01:08:42;35.78;;;18.42;;
70148;SDS011;57514;52.164;5.282;2023-09-12T01:11:09;34.35;;;18.63;;
70148;SDS011;57514;52.164;5.282;2023-09-12T01:13:37;39.92;;;19.25;;
70148;SDS011;57514;52.164;5.282;2023-09-12T01:16:05;35.22;;;18.80;;
70148;SDS011;57514;52.164;5.282;2023-09-12T01:18:32;35.60;;;20.02;;
70148;SDS011;57514;52.164;5.282;2023-09-12T01:23:39;36.47;;;17.55;;
70148;SDS011;57514;52.164;5.282;2023-09-12T01:26:21;39.90;;;18.73;;
70148;SDS011;57514;52.164;5.282;2023-09-12T01:29:07;36.42;;;17.70;;
70148;SDS011;57514;52.164;5.282;2023-09-12T01:31:34;39.85;;;19.65;;
70148;SDS011;57514;52.164;5.282;2023-09-12T01:34:12;40.20;;;20.27;;
70148;SDS011;57514;52.164;5.282;2023-09-12T01:36:40;39.22;;;18.55;;
70148;SDS011;57514;52.164;5.282;2023-09-12T01:39:08;35.15;;;17.13;;
70148;SDS011;57514;52.164;5.282;2023-09-12T01:41:37;36.40;;;17.75;;
70148;SDS011;57514;52.164;5.282;2023-09-12T01:44:07;35.85;;;19.25;;
70148;SDS011;57514;52.164;5.282;2023-09-12T01:46:35;36.95;;;18.27;;
70148;SDS011;57514;52.164;5.282;2023-09-12T01:49:04;35.83;;;18.90;;
70148;SDS011;57514;52.164;5.282;2023-09-12T01:51:32;35.42;;;17.15;;
70148;SDS011;57514;52.164;5.282;2023-09-12T01:54:00;39.58;;;17.88;;
70148;SDS011;57514;52.164;5.282;2023-09-12T01:56:29;39.08;;;17.80;;
70148;SDS011;57514;52.164;5.282;2023-09-12T01:58:57;35.28;;;17.67;;
70148;SDS011;57514;52.164;5.282;2023-09-12T02:01:25;37.00;;;17.25;;
70148;SDS011;57514;52.164;5.282;2023-09-12T02:03:53;38.17;;;18.02;;
70148;SDS011;57514;52.164;5.282;2023-09-12T02:06:21;37.33;;;18.83;;
70148;SDS011;57514;52.164;5.282;2023-09-12T02:08:48;39.40;;;17.90;;
70148;SDS011;57514;52.164;5.282;2023-09-12T02:11:16;40.60;;;19.45;;
70148;SDS011;57514;52.164;5.282;2023-09-12T02:13:43;41.28;;;18.95;;
70148;SDS011;57514;52.164;5.282;2023-09-12T02:16:10;37.88;;;18.27;;
70148;SDS011;57514;52.164;5.282;2023-09-12T02:18:38;39.15;;;19.13;;
70148;SDS011;57514;52.164;5.282;2023-09-12T02:21:05;33.88;;;16.77;;
70148;SDS011;57514;52.164;5.282;2023-09-12T02:23:33;34.22;;;16.90;;
70148;SDS011;57514;52.164;5.282;2023-09-12T02:26:00;38.28;;;18.23;;
70148;SDS011;57514;52.164;5.282;2023-09-12T02:28:28;42.53;;;19.98;;
70148;SDS011;57514;52.164;5.282;2023-09-12T02:30:55;41.42;;;19.98;;
70148;SDS011;57514;52.164;5.282;2023-09-12T02:33:24;58.47;;;21.10;;
70148;SDS011;57514;52.164;5.282;2023-09-12T02:35:51;103.43;;;24.20;;
70148;SDS011;57514;52.164;5.282;2023-09-12T02:38:18;108.63;;;22.13;;
70148;SDS011;57514;52.164;5.282;2023-09-12T02:40:45;77.32;;;20.30;;
70148;SDS011;57514;52.164;5.282;2023-09-12T02:43:13;111.03;;;22.92;;
70148;SDS011;57514;52.164;5.282;2023-09-12T02:45:40;212.10;;;23.52;;
70148;SDS011;57514;52.164;5.282;2023-09-12T02:48:07;120.18;;;22.52;;
70148;SDS011;57514;52.164;5.282;2023-09-12T02:50:35;69.18;;;21.02;;
70148;SDS011;57514;52.164;5.282;2023-09-12T02:53:02;178.18;;;20.70;;
70148;SDS011;57514;52.164;5.282;2023-09-12T02:55:29;71.45;;;20.95;;
70148;SDS011;57514;52.164;5.282;2023-09-12T02:57:57;98.20;;;20.85;;
70148;SDS011;57514;52.164;5.282;2023-09-12T03:00:24;88.90;;;21.45;;
70148;SDS011;57514;52.164;5.282;2023-09-12T03:02:51;142.45;;;21.17;;
70148;SDS011;57514;52.164;5.282;2023-09-12T03:05:18;104.97;;;19.88;;
70148;SDS011;57514;52.164;5.282;2023-09-12T03:07:46;117.97;;;20.92;;
70148;SDS011;57514;52.164;5.282;2023-09-12T03:10:14;63.88;;;21.13;;
70148;SDS011;57514;52.164;5.282;2023-09-12T03:12:42;80.22;;;20.73;;
70148;SDS011;57514;52.164;5.282;2023-09-12T03:15:09;170.32;;;22.52;;
70148;SDS011;57514;52.164;5.282;2023-09-12T03:17:37;75.60;;;19.63;;
70148;SDS011;57514;52.164;5.282;2023-09-12T03:20:04;171.82;;;22.55;;
70148;SDS011;57514;52.164;5.282;2023-09-12T03:22:35;102.18;;;21.58;;
70148;SDS011;57514;52.164;5.282;2023-09-12T03:25:04;127.35;;;21.27;;
70148;SDS011;57514;52.164;5.282;2023-09-12T03:27:32;88.30;;;21.67;;
70148;SDS011;57514;52.164;5.282;2023-09-12T03:29:59;122.10;;;21.85;;
70148;SDS011;57514;52.164;5.282;2023-09-12T03:32:27;83.35;;;21.92;;
70148;SDS011;57514;52.164;5.282;2023-09-12T03:34:54;78.70;;;20.85;;
70148;SDS011;57514;52.164;5.282;2023-09-12T03:37:21;69.60;;;21.02;;
70148;SDS011;57514;52.164;5.282;2023-09-12T03:39:48;69.57;;;22.25;;
70148;SDS011;57514;52.164;5.282;2023-09-12T03:42:15;99.95;;;22.33;;
70148;SDS011;57514;52.164;5.282;2023-09-12T03:44:43;81.95;;;20.67;;
70148;SDS011;57514;52.164;5.282;2023-09-12T03:47:10;56.92;;;21.83;;
70148;SDS011;57514;52.164;5.282;2023-09-12T03:49:38;78.90;;;22.70;;
70148;SDS011;57514;52.164;5.282;2023-09-12T03:52:05;77.15;;;22.17;;
70148;SDS011;57514;52.164;5.282;2023-09-12T03:54:33;49.67;;;21.58;;
70148;SDS011;57514;52.164;5.282;2023-09-12T03:57:00;64.07;;;20.95;;
70148;SDS011;57514;52.164;5.282;2023-09-12T03:59:27;70.18;;;23.33;;
70148;SDS011;57514;52.164;5.282;2023-09-12T04:01:55;55.40;;;22.25;;
70148;SDS011;57514;52.164;5.282;2023-09-12T04:04:22;50.58;;;21.52;;
70148;SDS011;57514;52.164;5.282;2023-09-12T04:06:50;54.42;;;23.35;;
70148;SDS011;57514;52.164;5.282;2023-09-12T04:09:17;49.15;;;23.27;;
70148;SDS011;57514;52.164;5.282;2023-09-12T04:11:44;47.45;;;22.38;;
70148;SDS011;57514;52.164;5.282;2023-09-12T04:14:13;55.78;;;22.33;;
70148;SDS011;57514;52.164;5.282;2023-09-12T04:16:41;53.78;;;23.17;;
70148;SDS011;57514;52.164;5.282;2023-09-12T04:19:08;62.70;;;23.05;;
70148;SDS011;57514;52.164;5.282;2023-09-12T04:21:36;65.43;;;24.38;;
70148;SDS011;57514;52.164;5.282;2023-09-12T04:24:04;70.07;;;22.63;;
70148;SDS011;57514;52.164;5.282;2023-09-12T04:26:31;47.47;;;20.67;;
70148;SDS011;57514;52.164;5.282;2023-09-12T04:28:58;48.53;;;21.65;;
70148;SDS011;57514;52.164;5.282;2023-09-12T04:31:26;52.33;;;24.95;;
70148;SDS011;57514;52.164;5.282;2023-09-12T04:33:54;46.38;;;22.88;;
70148;SDS011;57514;52.164;5.282;2023-09-12T04:36:21;47.38;;;23.92;;
70148;SDS011;57514;52.164;5.282;2023-09-12T04:38:49;45.33;;;22.80;;
70148;SDS011;57514;52.164;5.282;2023-09-12T04:41:16;53.60;;;24.60;;
70148;SDS011;57514;52.164;5.282;2023-09-12T04:43:44;49.80;;;23.08;;
70148;SDS011;57514;52.164;5.282;2023-09-12T04:46:11;52.25;;;22.73;;
70148;SDS011;57514;52.164;5.282;2023-09-12T04:48:39;51.42;;;22.38;;
70148;SDS011;57514;52.164;5.282;2023-09-12T04:51:07;47.58;;;23.25;;
70148;SDS011;57514;52.164;5.282;2023-09-12T04:53:35;50.17;;;22.45;;
70148;SDS011;57514;52.164;5.282;2023-09-12T04:56:03;47.45;;;21.65;;
70148;SDS011;57514;52.164;5.282;2023-09-12T04:58:32;46.42;;;23.23;;
70148;SDS011;57514;52.164;5.282;2023-09-12T05:01:00;52.97;;;24.83;;
70148;SDS011;57514;52.164;5.282;2023-09-12T05:03:27;52.65;;;25.02;;
70148;SDS011;57514;52.164;5.282;2023-09-12T05:05:54;52.15;;;24.33;;
70148;SDS011;57514;52.164;5.282;2023-09-12T05:08:22;49.33;;;24.92;;
70148;SDS011;57514;52.164;5.282;2023-09-12T05:10:50;51.88;;;22.88;;
70148;SDS011;57514;52.164;5.282;2023-09-12T05:13:18;54.03;;;21.92;;
70148;SDS011;57514;52.164;5.282;2023-09-12T05:15:46;50.90;;;24.65;;
70148;SDS011;57514;52.164;5.282;2023-09-12T05:18:13;58.63;;;24.88;;
70148;SDS011;57514;52.164;5.282;2023-09-12T05:20:40;54.25;;;23.67;;
70148;SDS011;57514;52.164;5.282;2023-09-12T05:23:08;54.60;;;22.08;;
70148;SDS011;57514;52.164;5.282;2023-09-12T05:25:35;53.20;;;24.17;;
70148;SDS011;57514;52.164;5.282;2023-09-12T05:28:02;58.83;;;24.77;;
70148;SDS011;57514;52.164;5.282;2023-09-12T05:30:30;56.30;;;25.23;;
70148;SDS011;57514;52.164;5.282;2023-09-12T05:32:58;51.35;;;23.42;;
70148;SDS011;57514;52.164;5.282;2023-09-12T05:35:25;53.72;;;24.02;;
70148;SDS011;57514;52.164;5.282;2023-09-12T05:37:53;61.13;;;26.00;;
70148;SDS011;57514;52.164;5.282;2023-09-12T05:40:20;56.80;;;25.85;;
70148;SDS011;57514;52.164;5.282;2023-09-12T05:42:48;61.35;;;27.42;;
70148;SDS011;57514;52.164;5.282;2023-09-12T05:45:15;55.97;;;25.00;;
70148;SDS011;57514;52.164;5.282;2023-09-12T05:47:42;62.35;;;27.02;;
70148;SDS011;57514;52.164;5.282;2023-09-12T05:50:10;62.33;;;25.25;;
70148;SDS011;57514;52.164;5.282;2023-09-12T05:52:38;57.67;;;25.63;;
70148;SDS011;57514;52.164;5.282;2023-09-12T05:55:05;59.15;;;26.15;;
70148;SDS011;57514;52.164;5.282;2023-09-12T05:57:33;57.33;;;24.55;;
70148;SDS011;57514;52.164;5.282;2023-09-12T06:00:01;56.85;;;26.40;;
70148;SDS011;57514;52.164;5.282;2023-09-12T06:02:37;56.92;;;25.63;;
70148;SDS011;57514;52.164;5.282;2023-09-12T06:05:06;61.92;;;26.52;;
70148;SDS011;57514;52.164;5.282;2023-09-12T06:07:33;58.22;;;26.23;;
70148;SDS011;57514;52.164;5.282;2023-09-12T06:10:04;60.85;;;25.63;;
70148;SDS011;57514;52.164;5.282;2023-09-12T06:12:31;55.85;;;24.33;;
70148;SDS011;57514;52.164;5.282;2023-09-12T06:14:59;59.03;;;25.67;;
70148;SDS011;57514;52.164;5.282;2023-09-12T06:17:27;61.55;;;26.80;;
70148;SDS011;57514;52.164;5.282;2023-09-12T06:19:55;55.47;;;25.60;;
70148;SDS011;57514;52.164;5.282;2023-09-12T06:22:22;59.60;;;27.45;;
70148;SDS011;57514;52.164;5.282;2023-09-12T06:24:50;62.10;;;27.30;;
70148;SDS011;57514;52.164;5.282;2023-09-12T06:27:17;59.22;;;28.00;;
70148;SDS011;57514;52.164;5.282;2023-09-12T06:29:46;59.45;;;25.88;;
70148;SDS011;57514;52.164;5.282;2023-09-12T06:32:17;65.35;;;28.58;;
70148;SDS011;57514;52.164;5.282;2023-09-12T06:34:44;62.08;;;27.52;;
70148;SDS011;57514;52.164;5.282;2023-09-12T06:37:11;64.47;;;28.35;;
70148;SDS011;57514;52.164;5.282;2023-09-12T06:39:40;64.15;;;27.80;;
70148;SDS011;57514;52.164;5.282;2023-09-12T06:42:08;60.50;;;25.33;;
70148;SDS011;57514;52.164;5.282;2023-09-12T06:44:36;56.60;;;25.15;;
70148;SDS011;57514;52.164;5.282;2023-09-12T06:47:04;60.67;;;27.75;;
70148;SDS011;57514;52.164;5.282;2023-09-12T06:49:31;61.58;;;26.70;;
70148;SDS011;57514;52.164;5.282;2023-09-12T06:54:28;57.90;;;26.05;;
70148;SDS011;57514;52.164;5.282;2023-09-12T06:56:55;61.35;;;25.98;;
70148;SDS011;57514;52.164;5.282;2023-09-12T06:59:22;61.20;;;26.40;;
70148;SDS011;57514;52.164;5.282;2023-09-12T07:01:49;55.22;;;26.25;;
70148;SDS011;57514;52.164;5.282;2023-09-12T07:04:17;60.75;;;25.77;;
70148;SDS011;57514;52.164;5.282;2023-09-12T07:06:44;59.70;;;27.35;;
70148;SDS011;57514;52.164;5.282;2023-09-12T07:09:11;55.67;;;24.85;;
70148;SDS011;57514;52.164;5.282;2023-09-12T07:11:41;60.78;;;27.40;;
70148;SDS011;57514;52.164;5.282;2023-09-12T07:14:08;58.33;;;26.20;;
70148;SDS011;57514;52.164;5.282;2023-09-12T07:16:36;56.72;;;25.55;;
70148;SDS011;57514;52.164;5.282;2023-09-12T07:19:03;63.60;;;28.33;;
70148;SDS011;57514;52.164;5.282;2023-09-12T07:21:31;58.03;;;25.83;;
70148;SDS011;57514;52.164;5.282;2023-09-12T07:23:58;57.17;;;26.45;;
70148;SDS011;57514;52.164;5.282;2023-09-12T07:26:26;55.35;;;25.90;;
70148;SDS011;57514;52.164;5.282;2023-09-12T07:28:54;57.03;;;25.60;;
70148;SDS011;57514;52.164;5.282;2023-09-12T07:31:21;59.35;;;26.08;;
70148;SDS011;57514;52.164;5.282;2023-09-12T07:33:48;57.65;;;25.58;;
70148;SDS011;57514;52.164;5.282;2023-09-12T07:36:16;58.78;;;26.10;;
70148;SDS011;57514;52.164;5.282;2023-09-12T07:38:43;57.30;;;25.67;;
70148;SDS011;57514;52.164;5.282;2023-09-12T07:41:12;54.58;;;26.80;;
70148;SDS011;57514;52.164;5.282;2023-09-12T07:43:39;49.50;;;22.98;;
70148;SDS011;57514;52.164;5.282;2023-09-12T07:46:07;46.40;;;24.13;;
70148;SDS011;57514;52.164;5.282;2023-09-12T07:48:34;45.28;;;22.77;;
70148;SDS011;57514;52.164;5.282;2023-09-12T07:51:04;50.60;;;23.42;;
70148;SDS011;57514;52.164;5.282;2023-09-12T07:53:41;47.55;;;23.17;;
70148;SDS011;57514;52.164;5.282;2023-09-12T07:56:09;48.70;;;23.35;;
70148;SDS011;57514;52.164;5.282;2023-09-12T07:58:37;45.90;;;22.35;;
70148;SDS011;57514;52.164;5.282;2023-09-12T08:01:05;50.60;;;22.65;;
70148;SDS011;57514;52.164;5.282;2023-09-12T08:03:36;47.28;;;22.13;;
70148;SDS011;57514;52.164;5.282;2023-09-12T08:06:05;44.72;;;21.50;;
70148;SDS011;57514;52.164;5.282;2023-09-12T08:08:32;44.72;;;21.95;;
70148;SDS011;57514;52.164;5.282;2023-09-12T08:10:59;45.95;;;22.08;;
70148;SDS011;57514;52.164;5.282;2023-09-12T08:13:27;42.55;;;21.08;;
70148;SDS011;57514;52.164;5.282;2023-09-12T08:15:55;41.50;;;20.73;;
70148;SDS011;57514;52.164;5.282;2023-09-12T08:18:25;45.08;;;21.35;;
70148;SDS011;57514;52.164;5.282;2023-09-12T08:20:55;45.13;;;20.10;;
70148;SDS011;57514;52.164;5.282;2023-09-12T08:23:22;46.28;;;22.30;;
70148;SDS011;57514;52.164;5.282;2023-09-12T08:25:49;43.50;;;22.08;;
70148;SDS011;57514;52.164;5.282;2023-09-12T08:28:17;46.83;;;23.00;;
70148;SDS011;57514;52.164;5.282;2023-09-12T08:30:45;49.08;;;22.48;;
70148;SDS011;57514;52.164;5.282;2023-09-12T08:33:12;45.25;;;21.23;;
70148;SDS011;57514;52.164;5.282;2023-09-12T08:35:40;45.22;;;22.15;;
70148;SDS011;57514;52.164;5.282;2023-09-12T08:38:07;45.20;;;21.52;;
70148;SDS011;57514;52.164;5.282;2023-09-12T08:40:35;44.25;;;21.45;;
70148;SDS011;57514;52.164;5.282;2023-09-12T08:43:02;45.50;;;21.83;;
70148;SDS011;57514;52.164;5.282;2023-09-12T08:45:33;46.65;;;22.35;;
70148;SDS011;57514;52.164;5.282;2023-09-12T08:48:00;43.60;;;20.75;;
70148;SDS011;57514;52.164;5.282;2023-09-12T08:50:29;43.55;;;21.35;;
70148;SDS011;57514;52.164;5.282;2023-09-12T08:55:33;43.97;;;21.52;;
70148;SDS011;57514;52.164;5.282;2023-09-12T08:58:02;50.78;;;22.27;;
70148;SDS011;57514;52.164;5.282;2023-09-12T09:00:30;49.08;;;21.30;;
70148;SDS011;57514;52.164;5.282;2023-09-12T09:02:58;46.58;;;20.70;;
70148;SDS011;57514;52.164;5.282;2023-09-12T09:05:26;52.22;;;22.05;;
70148;SDS011;57514;52.164;5.282;2023-09-12T09:07:55;46.75;;;21.15;;
70148;SDS011;57514;52.164;5.282;2023-09-12T09:10:23;46.05;;;21.45;;
70148;SDS011;57514;52.164;5.282;2023-09-12T09:13:12;47.80;;;21.35;;
70148;SDS011;57514;52.164;5.282;2023-09-12T09:15:39;43.70;;;19.98;;
70148;SDS011;57514;52.164;5.282;2023-09-12T09:18:09;41.05;;;19.80;;
70148;SDS011;57514;52.164;5.282;2023-09-12T09:20:39;41.45;;;20.70;;
70148;SDS011;57514;52.164;5.282;2023-09-12T09:23:08;42.67;;;21.23;;
70148;SDS011;57514;52.164;5.282;2023-09-12T09:25:39;47.28;;;21.42;;
70148;SDS011;57514;52.164;5.282;2023-09-12T09:28:20;46.97;;;22.50;;
70148;SDS011;57514;52.164;5.282;2023-09-12T09:30:48;45.38;;;21.63;;
70148;SDS011;57514;52.164;5.282;2023-09-12T09:33:17;46.45;;;22.10;;
70148;SDS011;57514;52.164;5.282;2023-09-12T09:35:45;42.38;;;22.25;;
70148;SDS011;57514;52.164;5.282;2023-09-12T09:38:13;39.92;;;20.08;;
70148;SDS011;57514;52.164;5.282;2023-09-12T09:40:43;39.55;;;21.02;;
70148;SDS011;57514;52.164;5.282;2023-09-12T09:43:10;46.72;;;22.33;;
70148;SDS011;57514;52.164;5.282;2023-09-12T09:45:44;40.53;;;20.52;;
70148;SDS011;57514;52.164;5.282;2023-09-12T09:48:19;41.80;;;20.73;;
70148;SDS011;57514;52.164;5.282;2023-09-12T09:50:50;41.17;;;21.08;;
70148;SDS011;57514;52.164;5.282;2023-09-12T09:53:31;41.70;;;21.23;;
70148;SDS011;57514;52.164;5.282;2023-09-12T09:56:10;41.65;;;22.08;;
70148;SDS011;57514;52.164;5.282;2023-09-12T09:58:47;39.80;;;21.23;;
70148;SDS011;57514;52.164;5.282;2023-09-12T10:01:20;40.10;;;20.48;;
70148;SDS011;57514;52.164;5.282;2023-09-12T10:03:56;36.80;;;20.08;;
70148;SDS011;57514;52.164;5.282;2023-09-12T10:06:26;38.78;;;21.38;;
70148;SDS011;57514;52.164;5.282;2023-09-12T10:08:54;40.20;;;22.23;;
70148;SDS011;57514;52.164;5.282;2023-09-12T10:11:22;39.00;;;22.23;;
70148;SDS011;57514;52.164;5.282;2023-09-12T10:13:53;44.30;;;22.80;;
70148;SDS011;57514;52.164;5.282;2023-09-12T10:16:24;42.38;;;22.60;;
70148;SDS011;57514;52.164;5.282;2023-09-12T10:19:08;40.45;;;22.88;;
70148;SDS011;57514;52.164;5.282;2023-09-12T10:21:44;43.90;;;21.80;;
70148;SDS011;57514;52.164;5.282;2023-09-12T10:24:30;40.65;;;22.25;;
70148;SDS011;57514;52.164;5.282;2023-09-12T10:26:58;38.15;;;23.00;;
70148;SDS011;57514;52.164;5.282;2023-09-12T10:29:25;38.67;;;21.48;;
70148;SDS011;57514;52.164;5.282;2023-09-12T10:31:52;38.97;;;22.00;;
70148;SDS011;57514;52.164;5.282;2023-09-12T10:34:19;36.80;;;21.92;;
70148;SDS011;57514;52.164;5.282;2023-09-12T10:36:48;36.85;;;19.75;;
70148;SDS011;57514;52.164;5.282;2023-09-12T10:39:16;35.45;;;19.92;;
70148;SDS011;57514;52.164;5.282;2023-09-12T10:41:45;36.60;;;21.40;;
70148;SDS011;57514;52.164;5.282;2023-09-12T10:44:16;35.45;;;20.10;;
70148;SDS011;57514;52.164;5.282;2023-09-12T10:46:45;36.08;;;19.98;;
70148;SDS011;57514;52.164;5.282;2023-09-12T10:49:13;31.80;;;18.45;;
70148;SDS011;57514;52.164;5.282;2023-09-12T10:51:41;32.70;;;20.33;;
70148;SDS011;57514;52.164;5.282;2023-09-12T10:54:14;32.20;;;18.60;;
70148;SDS011;57514;52.164;5.282;2023-09-12T10:56:42;34.25;;;18.42;;
70148;SDS011;57514;52.164;5.282;2023-09-12T10:59:12;35.63;;;21.15;;
70148;SDS011;57514;52.164;5.282;2023-09-12T11:01:40;34.53;;;19.55;;
70148;SDS011;57514;52.164;5.282;2023-09-12T11:06:50;34.40;;;18.42;;
70148;SDS011;57514;52.164;5.282;2023-09-12T11:09:18;28.25;;;16.23;;
70148;SDS011;57514;52.164;5.282;2023-09-12T11:11:54;30.70;;;17.58;;
70148;SDS011;57514;52.164;5.282;2023-09-12T11:14:25;27.95;;;16.38;;
70148;SDS011;57514;52.164;5.282;2023-09-12T11:19:44;28.92;;;15.60;;
70148;SDS011;57514;52.164;5.282;2023-09-12T11:24:57;21.48;;;13.20;;
70148;SDS011;57514;52.164;5.282;2023-09-12T11:27:32;21.33;;;12.30;;
70148;SDS011;57514;52.164;5.282;2023-09-12T11:30:16;24.15;;;14.75;;
70148;SDS011;57514;52.164;5.282;2023-09-12T11:32:49;25.65;;;15.13;;
70148;SDS011;57514;52.164;5.282;2023-09-12T11:35:24;24.73;;;14.45;;
70148;SDS011;57514;52.164;5.282;2023-09-12T11:37:56;26.67;;;15.13;;
70148;SDS011;57514;52.164;5.282;2023-09-12T11:43:17;22.83;;;12.75;;
70148;SDS011;57514;52.164;5.282;2023-09-12T11:45:55;24.45;;;13.32;;
70148;SDS011;57514;52.164;5.282;2023-09-12T11:48:22;19.15;;;11.13;;
70148;SDS011;57514;52.164;5.282;2023-09-12T11:50:51;19.35;;;11.55;;
70148;SDS011;57514;52.164;5.282;2023-09-12T11:53:21;19.38;;;11.45;;
70148;SDS011;57514;52.164;5.282;2023-09-12T11:55:52;21.40;;;11.88;;
70148;SDS011;57514;52.164;5.282;2023-09-12T12:00:49;22.35;;;13.05;;
70148;SDS011;57514;52.164;5.282;2023-09-12T12:03:20;26.02;;;14.80;;
70148;SDS011;57514;52.164;5.282;2023-09-12T12:05:48;24.45;;;14.05;;
70148;SDS011;57514;52.164;5.282;2023-09-12T12:08:17;23.83;;;13.77;;
70148;SDS011;57514;52.164;5.282;2023-09-12T12:10:50;25.92;;;14.05;;
70148;SDS011;57514;52.164;5.282;2023-09-12T12:13:19;23.45;;;12.43;;
70148;SDS011;57514;52.164;5.282;2023-09-12T12:15:47;26.33;;;14.82;;
70148;SDS011;57514;52.164;5.282;2023-09-12T12:18:15;26.48;;;14.98;;
70148;SDS011;57514;52.164;5.282;2023-09-12T12:20:42;25.08;;;14.50;;
70148;SDS011;57514;52.164;5.282;2023-09-12T12:23:09;24.13;;;13.98;;
70148;SDS011;57514;52.164;5.282;2023-09-12T12:25:37;22.50;;;12.82;;
70148;SDS011;57514;52.164;5.282;2023-09-12T12:28:04;22.98;;;12.80;;
70148;SDS011;57514;52.164;5.282;2023-09-12T12:30:32;21.63;;;12.95;;
70148;SDS011;57514;52.164;5.282;2023-09-12T12:33:00;22.48;;;12.38;;
70148;SDS011;57514;52.164;5.282;2023-09-12T12:35:38;21.02;;;12.35;;
70148;SDS011;57514;52.164;5.282;2023-09-12T12:38:19;22.92;;;13.93;;
70148;SDS011;57514;52.164;5.282;2023-09-12T12:40:46;22.00;;;12.50;;
70148;SDS011;57514;52.164;5.282;2023-09-12T12:43:16;22.50;;;12.73;;
70148;SDS011;57514;52.164;5.282;2023-09-12T12:45:51;20.40;;;12.63;;
70148;SDS011;57514;52.164;5.282;2023-09-12T12:48:32;21.70;;;12.77;;
70148;SDS011;57514;52.164;5.282;2023-09-12T12:51:14;22.38;;;11.95;;
70148;SDS011;57514;52.164;5.282;2023-09-12T12:53:47;21.27;;;11.88;;
70148;SDS011;57514;52.164;5.282;2023-09-12T12:56:22;17.10;;;10.23;;
70148;SDS011;57514;52.164;5.282;2023-09-12T12:58:59;20.27;;;11.13;;
70148;SDS011;57514;52.164;5.282;2023-09-12T13:01:29;22.20;;;11.82;;
70148;SDS011;57514;52.164;5.282;2023-09-12T13:03:56;18.25;;;9.73;;
70148;SDS011;57514;52.164;5.282;2023-09-12T13:06:24;16.77;;;8.50;;
70148;SDS011;57514;52.164;5.282;2023-09-12T13:08:54;16.05;;;7.97;;
70148;SDS011;57514;52.164;5.282;2023-09-12T13:13:50;13.50;;;7.50;;
70148;SDS011;57514;52.164;5.282;2023-09-12T13:16:17;13.95;;;6.85;;
70148;SDS011;57514;52.164;5.282;2023-09-12T13:18:45;10.80;;;5.00;;
70148;SDS011;57514;52.164;5.282;2023-09-12T13:21:12;12.90;;;6.38;;
70148;SDS011;57514;52.164;5.282;2023-09-12T13:23:39;11.40;;;5.97;;
70148;SDS011;57514;52.164;5.282;2023-09-12T13:26:08;12.63;;;6.10;;
70148;SDS011;57514;52.164;5.282;2023-09-12T13:28:36;13.88;;;5.35;;
70148;SDS011;57514;52.164;5.282;2023-09-12T13:31:04;14.88;;;7.18;;
70148;SDS011;57514;52.164;5.282;2023-09-12T13:33:31;14.70;;;7.32;;
70148;SDS011;57514;52.164;5.282;2023-09-12T13:35:59;17.20;;;8.40;;
70148;SDS011;57514;52.164;5.282;2023-09-12T13:38:25;14.50;;;7.15;;
70148;SDS011;57514;52.164;5.282;2023-09-12T13:40:53;16.52;;;7.93;;
70148;SDS011;57514;52.164;5.282;2023-09-12T13:43:20;15.52;;;6.60;;
70148;SDS011;57514;52.164;5.282;2023-09-12T13:45:49;16.15;;;7.72;;
70148;SDS011;57514;52.164;5.282;2023-09-12T13:48:16;14.65;;;6.50;;
70148;SDS011;57514;52.164;5.282;2023-09-12T13:50:44;15.15;;;7.22;;
70148;SDS011;57514;52.164;5.282;2023-09-12T13:53:11;14.00;;;6.25;;
70148;SDS011;57514;52.164;5.282;2023-09-12T13:55:38;12.85;;;6.45;;
70148;SDS011;57514;52.164;5.282;2023-09-12T13:58:25;13.60;;;6.45;;
70148;SDS011;57514;52.164;5.282;2023-09-12T14:01:01;11.32;;;4.88;;
70148;SDS011;57514;52.164;5.282;2023-09-12T14:03:30;12.35;;;6.15;;
70148;SDS011;57514;52.164;5.282;2023-09-12T14:05:59;10.82;;;4.55;;
70148;SDS011;57514;52.164;5.282;2023-09-12T14:08:26;9.30;;;3.70;;
70148;SDS011;57514;52.164;5.282;2023-09-12T14:10:53;9.75;;;3.55;;
70148;SDS011;57514;52.164;5.282;2023-09-12T14:13:21;11.93;;;4.40;;
70148;SDS011;57514;52.164;5.282;2023-09-12T14:15:49;11.90;;;4.32;;
70148;SDS011;57514;52.164;5.282;2023-09-12T14:18:17;9.88;;;3.92;;
70148;SDS011;57514;52.164;5.282;2023-09-12T14:20:45;13.00;;;4.82;;
70148;SDS011;57514;52.164;5.282;2023-09-12T14:23:14;10.32;;;4.07;;
70148;SDS011;57514;52.164;5.282;2023-09-12T14:25:41;9.63;;;3.75;;
70148;SDS011;57514;52.164;5.282;2023-09-12T14:28:09;7.63;;;3.13;;
70148;SDS011;57514;52.164;5.282;2023-09-12T14:30:37;8.10;;;3.13;;
70148;SDS011;57514;52.164;5.282;2023-09-12T14:33:05;7.97;;;3.25;;
70148;SDS011;57514;52.164;5.282;2023-09-12T14:35:32;7.97;;;3.80;;
70148;SDS011;57514;52.164;5.282;2023-09-12T14:37:59;9.27;;;3.85;;
70148;SDS011;57514;52.164;5.282;2023-09-12T14:40:26;8.52;;;3.20;;
70148;SDS011;57514;52.164;5.282;2023-09-12T14:42:54;7.05;;;3.33;;
70148;SDS011;57514;52.164;5.282;2023-09-12T14:45:21;5.43;;;2.53;;
70148;SDS011;57514;52.164;5.282;2023-09-12T14:47:50;6.93;;;2.88;;
70148;SDS011;57514;52.164;5.282;2023-09-12T14:50:16;8.48;;;3.13;;
70148;SDS011;57514;52.164;5.282;2023-09-12T14:52:46;7.70;;;2.97;;
70148;SDS011;57514;52.164;5.282;2023-09-12T14:55:13;6.05;;;3.10;;
70148;SDS011;57514;52.164;5.282;2023-09-12T14:57:41;6.53;;;2.90;;